createdAt,value
2019-05-02T00:04:36.695Z,7.30
2019-05-02T00:07:25.581Z,7.25
2019-05-02T00:13:29.433Z,7.21
2019-05-02T00:19:33.376Z,7.12
2019-05-02T00:22:22.282Z,7.08
2019-05-02T00:25:15.823Z,7.00
2019-05-02T00:28:01.868Z,6.98
2019-05-02T00:30:50.669Z,6.91
2019-05-02T00:33:39.588Z,6.90
2019-05-02T00:36:28.405Z,6.87
2019-05-02T00:39:17.307Z,6.85
2019-05-02T00:42:12.884Z,6.86
2019-05-02T00:44:56.790Z,6.85
2019-05-02T00:50:45.291Z,6.92
2019-05-02T00:53:32.115Z,6.92
2019-05-02T00:56:14.102Z,6.87
2019-05-02T00:59:07.534Z,6.81
2019-05-02T01:02:12.524Z,6.73
2019-05-02T01:05:03.189Z,6.73
2019-05-02T01:07:55.896Z,6.78
2019-05-02T01:10:42.537Z,6.72
2019-05-02T01:13:31.361Z,6.68
2019-05-02T01:16:20.339Z,6.66
2019-05-02T01:19:12.226Z,6.61
2019-05-02T01:21:59.836Z,6.57
2019-05-02T01:24:48.749Z,6.51
2019-05-02T01:31:06.149Z,6.48
2019-05-02T01:34:17.972Z,6.44
2019-05-02T01:37:23.591Z,6.40
2019-05-02T01:40:13.041Z,6.33
2019-05-02T01:43:25.521Z,6.33
2019-05-02T01:46:16.958Z,6.34
2019-05-02T01:49:05.624Z,6.33
2019-05-02T01:51:54.445Z,6.31
2019-05-02T01:54:45.664Z,6.20
2019-05-02T01:57:26.784Z,6.17
2019-05-02T02:00:15.699Z,6.15
2019-05-02T02:03:09.040Z,6.13
2019-05-02T02:05:55.369Z,6.10
2019-05-02T02:08:44.172Z,6.15
2019-05-02T02:11:33.805Z,6.09
2019-05-02T02:14:23.608Z,6.01
2019-05-02T02:17:15.626Z,5.91
2019-05-02T02:23:31.690Z,5.83
2019-05-02T02:26:39.556Z,5.82
2019-05-02T02:29:28.384Z,5.77
2019-05-02T02:32:20.282Z,5.77
2019-05-02T02:35:10.218Z,5.88
2019-05-02T02:37:58.405Z,6.03
2019-05-02T02:40:47.252Z,6.14
2019-05-02T02:43:36.063Z,6.21
2019-05-02T02:49:24.041Z,6.32
2019-05-02T02:52:11.344Z,6.38
2019-05-02T02:54:52.770Z,6.45
2019-05-02T02:57:41.588Z,6.51
2019-05-02T03:00:30.524Z,6.64
2019-05-02T03:03:20.695Z,6.74
2019-05-02T03:06:09.921Z,6.88
2019-05-02T03:12:26.852Z,7.01
2019-05-02T03:18:26.966Z,7.06
2019-05-02T03:21:20.787Z,7.19
2019-05-02T03:24:06.592Z,7.28
2019-05-02T03:26:57.968Z,7.32
2019-05-02T03:29:46.314Z,7.51
2019-05-02T03:32:36.307Z,7.75
2019-05-02T03:35:40.823Z,7.73
2019-05-02T03:38:16.865Z,7.77
2019-05-02T03:41:05.806Z,8.00
2019-05-02T03:44:09.829Z,7.90
2019-05-02T03:46:45.315Z,7.87
2019-05-02T03:49:34.230Z,7.82
2019-05-02T03:52:23.136Z,7.87
2019-05-02T03:55:12.038Z,8.04
2019-05-02T04:01:15.700Z,8.07
2019-05-02T04:04:04.872Z,8.17
2019-05-02T04:06:54.997Z,8.30
2019-05-02T04:09:44.410Z,8.36
2019-05-02T04:12:58.329Z,8.40
2019-05-02T04:25:33.923Z,8.37
2019-05-02T04:28:20.042Z,8.30
2019-05-02T04:31:08.883Z,8.54
2019-05-02T04:33:57.729Z,8.55
2019-05-02T04:36:47.478Z,8.40
2019-05-02T04:39:39.069Z,8.64
2019-05-02T04:42:29.446Z,8.70
2019-05-02T04:45:28.206Z,8.82
2019-05-02T04:48:08.965Z,8.62
2019-05-02T04:51:01.908Z,8.71
2019-05-02T04:53:49.872Z,8.88
2019-05-02T04:56:32.239Z,8.99
2019-05-02T04:59:22.866Z,9.05
2019-05-02T05:02:11.627Z,9.11
2019-05-02T05:05:00.515Z,9.32
2019-05-02T05:07:49.585Z,9.33
2019-05-02T05:10:41.369Z,9.23
2019-05-02T05:13:30.494Z,9.44
2019-05-02T05:16:19.322Z,9.49
2019-05-02T05:19:08.172Z,9.50
2019-05-02T05:22:04.423Z,9.68
2019-05-02T05:25:07.454Z,9.86
2019-05-02T05:28:03.412Z,9.72
2019-05-02T05:30:49.665Z,9.87
2019-05-02T05:33:38.470Z,9.85
2019-05-02T05:36:32.514Z,9.95
2019-05-02T05:39:17.903Z,9.83
2019-05-02T05:42:10.330Z,9.76
2019-05-02T05:44:58.337Z,9.91
2019-05-02T05:47:48.016Z,10.04
2019-05-02T05:50:40.175Z,10.12
2019-05-02T05:53:28.168Z,10.02
2019-05-02T05:56:10.964Z,10.46
2019-05-02T05:58:59.826Z,10.19
2019-05-02T06:01:51.536Z,10.23
2019-05-02T06:04:39.257Z,10.30
2019-05-02T06:07:28.195Z,10.48
2019-05-02T06:10:17.199Z,10.30
2019-05-02T06:13:10.996Z,10.14
2019-05-02T06:16:02.878Z,10.11
2019-05-02T06:18:47.294Z,10.53
2019-05-02T06:21:39.977Z,10.60
2019-05-02T06:24:26.775Z,10.48
2019-05-02T06:27:15.624Z,10.36
2019-05-02T06:30:27.143Z,10.46
2019-05-02T06:33:15.915Z,10.76
2019-05-02T06:36:04.884Z,10.62
2019-05-02T06:38:56.632Z,10.48
2019-05-02T06:41:44.280Z,10.62
2019-05-02T06:44:33.137Z,10.85
2019-05-02T06:47:22.139Z,10.78
2019-05-02T06:50:11.271Z,11.20
2019-05-02T06:53:04.288Z,11.06
2019-05-02T06:55:44.303Z,11.45
2019-05-02T06:58:37.188Z,11.44
2019-05-02T07:01:23.848Z,11.60
2019-05-02T07:04:17.379Z,11.61
2019-05-02T07:07:03.380Z,11.61
2019-05-02T07:09:54.426Z,11.74
2019-05-02T07:12:46.199Z,11.64
2019-05-02T07:15:52.988Z,11.41
2019-05-02T07:19:00.859Z,11.82
2019-05-02T07:21:53.201Z,11.92
2019-05-02T07:24:40.547Z,11.72
2019-05-02T07:27:33.775Z,11.87
2019-05-02T07:30:20.099Z,12.18
2019-05-02T07:33:08.948Z,12.27
2019-05-02T07:36:00.171Z,12.15
2019-05-02T07:38:48.452Z,12.41
2019-05-02T07:41:37.365Z,12.67
2019-05-02T07:44:27.067Z,12.26
2019-05-02T07:47:16.779Z,12.24
2019-05-02T07:53:34.066Z,11.93
2019-05-02T07:56:17.544Z,12.19
2019-05-02T07:59:06.771Z,12.28
2019-05-02T08:01:55.692Z,12.13
2019-05-02T08:04:44.932Z,12.64
2019-05-02T08:07:35.214Z,12.93
2019-05-02T08:10:24.137Z,12.61
2019-05-02T08:13:17.484Z,12.82
2019-05-02T08:16:03.504Z,13.12
2019-05-02T08:18:52.402Z,13.30
2019-05-02T08:21:41.253Z,13.35
2019-05-02T08:24:33.038Z,13.45
2019-05-02T08:27:22.985Z,13.03
2019-05-02T08:33:29.129Z,13.33
2019-05-02T08:36:17.024Z,13.19
2019-05-02T08:39:33.210Z,14.10
2019-05-02T08:42:17.294Z,14.43
2019-05-02T08:45:27.032Z,14.29
2019-05-02T08:48:15.866Z,13.74
2019-05-02T08:51:04.780Z,14.00
2019-05-02T08:53:56.756Z,14.14
2019-05-02T08:56:37.634Z,14.14
2019-05-02T08:59:26.470Z,14.40
2019-05-02T09:02:15.310Z,14.59
2019-05-02T09:08:32.513Z,14.88
2019-05-02T09:11:21.341Z,15.16
2019-05-02T09:14:12.465Z,15.10
2019-05-02T09:17:08.470Z,15.69
2019-05-02T09:20:01.911Z,15.84
2019-05-02T09:22:41.971Z,15.31
2019-05-02T09:25:32.427Z,16.09
2019-05-02T09:28:22.613Z,17.45
2019-05-02T09:34:22.843Z,17.67
2019-05-02T09:37:12.107Z,17.16
2019-05-02T09:40:06.756Z,16.00
2019-05-02T09:42:57.467Z,15.78
2019-05-02T09:45:44.065Z,17.16
2019-05-02T09:48:34.306Z,15.71
2019-05-02T09:51:23.153Z,15.75
2019-05-02T09:54:12.066Z,16.12
2019-05-02T09:57:02.803Z,17.54
2019-05-02T09:59:50.418Z,18.54
2019-05-02T10:02:35.106Z,19.01
2019-05-02T10:05:23.907Z,19.75
2019-05-02T10:08:13.859Z,21.30
2019-05-02T10:11:03.436Z,19.97
2019-05-02T10:13:55.304Z,21.66
2019-05-02T10:16:43.012Z,21.18
2019-05-02T10:19:32.677Z,20.94
2019-05-02T10:22:23.941Z,22.00
2019-05-02T10:28:49.147Z,23.31
2019-05-02T10:31:35.965Z,21.80
2019-05-02T10:34:22.861Z,19.78
2019-05-02T10:40:17.049Z,18.97
2019-05-02T10:43:03.986Z,20.77
2019-05-02T10:51:57.701Z,22.39
2019-05-02T10:54:46.539Z,22.86
2019-05-02T10:57:35.386Z,22.70
2019-05-02T11:03:43.734Z,21.11
2019-05-02T11:06:29.727Z,21.02
2019-05-02T11:09:24.572Z,19.88
2019-05-02T11:15:44.923Z,19.28
2019-05-02T11:18:52.856Z,20.04
2019-05-02T11:21:53.529Z,20.90
2019-05-02T11:24:32.261Z,20.05
2019-05-02T11:27:22.109Z,19.55
2019-05-02T11:30:12.222Z,20.22
2019-05-02T11:33:03.089Z,20.83
2019-05-02T11:35:53.616Z,20.70
2019-05-02T11:38:46.024Z,21.51
2019-05-02T11:41:34.301Z,22.00
2019-05-02T11:44:23.224Z,21.56
2019-05-02T11:47:12.616Z,20.60
2019-05-02T11:50:02.651Z,20.66
2019-05-02T11:52:52.298Z,19.31
2019-05-02T11:55:43.821Z,20.50
2019-05-02T11:58:32.664Z,20.40
2019-05-02T12:01:35.012Z,20.00
2019-05-02T12:04:16.741Z,20.11
2019-05-02T12:07:04.950Z,20.81
2019-05-02T12:09:56.986Z,19.84
2019-05-02T12:15:58.658Z,20.41
2019-05-02T12:18:47.876Z,21.54
2019-05-02T12:21:39.223Z,21.61
2019-05-02T12:24:27.409Z,20.65
2019-05-02T12:27:16.268Z,21.75
2019-05-02T12:36:19.912Z,21.59
2019-05-02T12:42:37.120Z,20.98
2019-05-02T12:45:25.955Z,21.38
2019-05-02T12:48:14.804Z,21.94
2019-05-02T12:51:03.616Z,21.11
2019-05-02T12:53:52.941Z,21.86
2019-05-02T12:56:43.070Z,22.17
2019-05-02T12:59:25.029Z,22.26
2019-05-02T13:05:23.343Z,22.34
2019-05-02T13:08:12.419Z,21.92
2019-05-02T13:11:22.288Z,21.82
2019-05-02T13:14:19.144Z,22.21
2019-05-02T13:17:05.472Z,20.85
2019-05-02T13:19:57.080Z,21.85
2019-05-02T13:25:52.881Z,21.88
2019-05-02T13:28:44.102Z,21.41
2019-05-02T13:34:48.637Z,20.78
2019-05-02T13:37:37.718Z,20.45
2019-05-02T13:40:45.661Z,20.28
2019-05-02T13:46:34.496Z,20.86
2019-05-02T13:49:23.429Z,21.11
2019-05-02T13:52:12.334Z,20.94
2019-05-02T13:55:01.929Z,21.42
2019-05-02T13:57:53.030Z,21.58
2019-05-02T14:00:37.527Z,21.75
2019-05-02T14:03:26.377Z,21.77
2019-05-02T14:06:15.287Z,21.14
2019-05-02T14:12:52.816Z,21.59
2019-05-02T14:15:42.630Z,21.80
2019-05-02T14:18:33.482Z,21.34
2019-05-02T14:21:22.461Z,21.13
2019-05-02T14:24:12.686Z,20.59
2019-05-02T14:27:02.591Z,20.35
2019-05-02T14:29:52.581Z,20.19
2019-05-02T14:32:42.746Z,20.22
2019-05-02T14:38:32.303Z,19.49
2019-05-02T14:44:59.925Z,19.12
2019-05-02T14:47:22.373Z,18.39
2019-05-02T14:50:23.601Z,17.54
2019-05-02T14:53:24.879Z,17.21
2019-05-02T14:56:32.928Z,17.18
2019-05-02T15:02:15.924Z,17.24
2019-05-02T15:05:29.531Z,17.29
2019-05-02T15:08:16.208Z,17.01
2019-05-02T15:11:05.126Z,17.06
2019-05-02T15:13:53.990Z,17.04
2019-05-02T15:16:45.145Z,16.73
2019-05-02T15:19:33.543Z,16.54
2019-05-02T15:22:22.905Z,16.80
2019-05-02T15:25:17.662Z,16.72
2019-05-02T15:28:03.689Z,16.84
2019-05-02T15:31:11.907Z,17.08
2019-05-02T15:34:19.780Z,17.34
2019-05-02T15:37:08.684Z,17.76
2019-05-02T15:46:03.234Z,17.45
2019-05-02T15:48:52.133Z,17.11
2019-05-02T15:51:43.731Z,16.86
2019-05-02T15:54:32.192Z,16.70
2019-05-02T15:57:24.820Z,16.38
2019-05-02T16:00:10.118Z,16.12
2019-05-02T16:03:01.459Z,15.96
2019-05-02T16:05:49.651Z,15.06
2019-05-02T16:11:52.222Z,13.84
2019-05-02T16:14:38.576Z,13.42
2019-05-02T16:21:04.907Z,12.93
2019-05-02T16:23:32.747Z,12.84
2019-05-02T16:26:17.893Z,12.74
2019-05-02T16:29:28.464Z,12.72
2019-05-02T16:32:37.807Z,12.68
2019-05-02T16:38:35.950Z,12.64
2019-05-02T16:41:24.791Z,12.77
2019-05-02T16:44:13.655Z,12.76
2019-05-02T16:50:35.408Z,12.71
2019-05-02T16:53:24.990Z,12.77
2019-05-02T16:56:12.260Z,12.60
2019-05-02T16:59:02.022Z,12.56
2019-05-02T17:01:42.790Z,12.44
2019-05-02T17:04:31.931Z,12.59
2019-05-02T17:10:37.250Z,12.64
2019-05-02T17:13:27.422Z,12.60
2019-05-02T17:16:17.334Z,12.68
2019-05-02T17:19:07.530Z,12.68
2019-05-02T17:21:56.684Z,12.43
2019-05-02T17:24:47.018Z,12.37
2019-05-02T17:27:35.921Z,12.41
2019-05-02T17:30:24.766Z,12.38
2019-05-02T17:33:16.265Z,12.33
2019-05-02T17:39:19.429Z,12.30
2019-05-02T17:42:08.297Z,12.44
2019-05-02T17:44:37.822Z,12.46
2019-05-02T17:47:30.920Z,12.42
2019-05-02T17:53:49.804Z,12.42
2019-05-02T17:56:36.143Z,12.27
2019-05-02T17:59:28.321Z,12.26
2019-05-02T18:02:14.220Z,12.19
2019-05-02T18:04:59.523Z,12.12
2019-05-02T18:07:48.459Z,12.16
2019-05-02T18:10:37.302Z,12.07
2019-05-02T18:13:29.262Z,12.13
2019-05-02T18:16:16.896Z,12.13
2019-05-02T18:19:05.845Z,12.11
2019-05-02T18:21:58.293Z,11.97
2019-05-02T18:24:46.463Z,12.08
2019-05-02T18:27:35.854Z,11.99
2019-05-02T18:30:26.922Z,11.82
2019-05-02T18:33:15.375Z,11.87
2019-05-02T18:36:04.669Z,11.78
2019-05-02T18:39:00.214Z,11.80
2019-05-02T18:41:46.366Z,11.76
2019-05-02T18:44:35.247Z,11.86
2019-05-02T18:47:24.893Z,11.92
2019-05-02T18:50:36.883Z,11.93
2019-05-02T18:53:27.387Z,12.00
2019-05-02T18:56:16.601Z,11.89
2019-05-02T18:59:05.603Z,11.77
2019-05-02T19:01:51.976Z,11.72
2019-05-02T19:04:39.812Z,11.67
2019-05-02T19:07:32.948Z,11.72
2019-05-02T19:10:19.430Z,11.71
2019-05-02T19:13:08.525Z,11.74
2019-05-02T19:15:57.383Z,11.65
2019-05-02T19:18:48.936Z,11.60
2019-05-02T19:21:39.456Z,11.63
2019-05-02T19:24:34.965Z,11.46
2019-05-02T19:33:29.124Z,11.45
2019-05-02T19:36:24.338Z,11.38
2019-05-02T19:39:09.961Z,11.48
2019-05-02T19:42:01.779Z,11.59
2019-05-02T19:44:52.644Z,11.62
2019-05-02T19:47:42.131Z,11.61
2019-05-02T19:50:52.769Z,11.53
2019-05-02T19:53:42.604Z,11.56
2019-05-02T19:56:43.207Z,11.64
2019-05-02T19:59:34.261Z,11.78
2019-05-02T20:02:16.562Z,11.69
2019-05-02T20:08:24.365Z,11.57
2019-05-02T20:14:46.082Z,11.68
2019-05-02T20:17:32.582Z,11.66
2019-05-02T20:21:02.599Z,11.53
2019-05-02T20:23:52.156Z,11.61
2019-05-02T20:26:41.779Z,11.64
2019-05-02T20:29:32.155Z,11.48
2019-05-02T20:32:22.380Z,11.55
2019-05-02T20:35:12.421Z,11.53
2019-05-02T20:38:01.860Z,11.53
2019-05-02T20:40:52.193Z,11.54
2019-05-02T20:43:44.687Z,11.57
2019-05-02T20:46:32.622Z,11.59
2019-05-02T20:49:22.776Z,11.90
2019-05-02T20:52:12.019Z,11.67
2019-05-02T20:55:02.351Z,11.59
2019-05-02T20:57:52.723Z,11.48
2019-05-02T21:00:42.697Z,11.60
2019-05-02T21:03:25.476Z,11.54
2019-05-02T21:09:33.272Z,11.27
2019-05-02T21:12:22.214Z,11.39
2019-05-02T21:15:12.498Z,11.36
2019-05-02T21:18:02.325Z,11.38
2019-05-02T21:20:52.713Z,11.29
2019-05-02T21:23:47.174Z,11.38
2019-05-02T21:26:32.878Z,11.01
2019-05-02T21:29:22.974Z,10.97
2019-05-02T21:32:12.073Z,10.83
2019-05-02T21:35:02.888Z,10.73
2019-05-02T21:37:52.994Z,10.63
2019-05-02T21:40:42.302Z,10.50
2019-05-02T21:43:32.485Z,10.33
2019-05-02T21:46:22.358Z,10.27
2019-05-02T21:58:07.642Z,9.63
2019-05-02T22:04:18.176Z,9.65
2019-05-02T22:07:07.094Z,9.55
2019-05-02T22:09:55.939Z,9.45
2019-05-02T22:12:44.806Z,9.41
2019-05-02T22:15:33.663Z,9.17
2019-05-02T22:18:22.509Z,9.09
2019-05-02T22:21:12.310Z,9.27
2019-05-02T22:24:10.468Z,9.19
2019-05-02T22:26:52.734Z,9.01
2019-05-02T22:29:43.121Z,9.22
2019-05-02T22:32:32.201Z,8.97
2019-05-02T22:35:21.718Z,9.02
2019-05-02T22:38:31.806Z,9.03
2019-05-02T22:41:22.111Z,9.03
2019-05-02T22:44:12.495Z,8.84
2019-05-02T22:49:52.668Z,8.93
2019-05-02T22:52:41.674Z,9.00
2019-05-02T22:55:31.993Z,8.78
2019-05-02T22:58:22.189Z,8.65
2019-05-02T23:01:11.677Z,8.67
2019-05-02T23:03:53.158Z,8.61
2019-05-02T23:06:44.141Z,8.68
2019-05-02T23:09:32.541Z,8.51
2019-05-02T23:12:22.544Z,8.62
2019-05-02T23:15:12.569Z,8.52
2019-05-02T23:18:02.765Z,8.42
2019-05-02T23:20:52.606Z,8.30
2019-05-02T23:23:42.174Z,8.36
2019-05-02T23:26:51.778Z,8.50
2019-05-02T23:29:42.445Z,8.57
2019-05-02T23:32:31.675Z,8.52
2019-05-02T23:35:21.888Z,8.69
2019-05-02T23:38:12.486Z,8.84
2019-05-02T23:41:02.080Z,8.88
2019-05-02T23:43:52.433Z,9.09
2019-05-02T23:46:42.580Z,9.14
2019-05-02T23:49:32.469Z,9.11
2019-05-02T23:52:22.517Z,9.06
2019-05-02T23:55:12.522Z,9.21
2019-05-02T23:58:02.916Z,9.11
